Aviation Digital Data Service (ADDS)

Output produced by METARs form (1145 UTC 25 June 2019)
found at http://www.aviationweather.gov/metar/data/
 
Forecast for: EVRA (RIGA AIRPORT , LV)
Text: TAF EVRA 251102Z 2512/2612 VRB02KT CAVOK
Forecast period: 1200 UTC 25 June 2019 to 1200 UTC 26 June 2019
Forecast type: FROM: standard forecast or significant change
Winds: variable direction winds at 2 MPH (2 knots; 1.0 m/s)
Visibility: 6 or more miles 10+ km)
Ceiling: unknown
Clouds: missing
Weather: NSW  (no significant weather)